Flight Track Log - Related Links

Times and Time Zones

All times are in EDT time to prevent confusion due to time zone crossing. See the ASQ5861 flight status page for this flight to view local times or setup timezone preferences in your user account.

Time Position Orientation Groundspeed Altitude Reporting Facility
EDT Latitude Longitude Course Direction KTS MPH feet Rate Location/Type
Mon 10:09:59 PM 41.9833 -87.8667 95° East 147 169 2,400  Level Chicago TRACON
Mon 10:10:47 PM 41.9833 -87.8167 90° East 193 222 4,000 1,959 Climbing Chicago TRACON
Mon 10:13:12 PM 42.0050 -87.5939 82° East 272 313 8,700 2,010 Climbing Chicago Center
Mon 10:14:13 PM 41.9936 -87.4847 98° East 292 336 10,900 2,000 Climbing Chicago Center
Mon 10:15:00 PM 41.9367 -87.1796 95° East  Level FlightAware Approximate
Mon 10:15:15 PM 41.9847 -87.3714 96° East 305 351 12,800  Level Chicago Center
Mon 10:16:16 PM 41.9772 -87.2508 95° East 321 369 14,700 1,854 Climbing Chicago Center
Mon 10:17:18 PM 41.9703 -87.1278 94° East 330 380 16,600 1,790 Climbing Chicago Center
Mon 10:18:20 PM 41.9614 -86.9786 95° East 335 386 18,400 1,415 Climbing Chicago Center
Mon 10:19:21 PM 41.9481 -86.8464 98° East 356 410 19,500 1,463 Climbing Chicago Center
Mon 10:20:23 PM 41.9164 -86.7147 108° East 371 427 21,400 1,854 Climbing Chicago Center
Mon 10:21:24 PM 41.8883 -86.5958 108° East 361 415 23,300 1,707 Climbing Chicago Center
Mon 10:22:26 PM 41.8683 -86.4661 102° East 362 417 24,900 1,366 Climbing Chicago Center
Mon 10:23:27 PM 41.8619 -86.2994 93° East 375 432 26,100 1,122 Climbing Chicago Center
Mon 10:24:29 PM 41.8567 -86.1536 93° East 390 449 27,200 1,024 Climbing Chicago Center
Mon 10:25:30 PM 41.8506 -86.0058 93° East 397 457 28,200 976 Climbing Chicago Center
Mon 10:26:32 PM 41.8450 -85.8581 93° East 397 457 29,200 1,024 Climbing Chicago Center
Mon 10:27:33 PM 41.8381 -85.7050 93° East 407 468 30,300 878 Climbing Chicago Center
Mon 10:28:35 PM 41.8325 -85.5497 93° East 412 474 31,000 341 Climbing Chicago Center
Mon 10:29:36 PM 41.8250 -85.3839 93° East 431 496 31,000  Level Chicago Center
Mon 10:30:37 PM 41.8172 -85.2117 93° East 452 520 31,000  Level Chicago Center
Mon 10:31:25 PM 41.8136 -85.0747 92° East 453 521 31,000  Level Cleveland Center
Mon 10:32:25 PM 41.8019 -84.8900 95° East 453 521 31,000  Level Cleveland Center
Mon 10:33:25 PM 41.7933 -84.7222 94° East 453 521 31,000  Level Cleveland Center
Mon 10:34:25 PM 41.7850 -84.5517 94° East 459 528 31,000  Level Cleveland Center
Mon 10:35:25 PM 41.7783 -84.3786 93° East 464 534 31,000  Level Cleveland Center
Mon 10:36:25 PM 41.7756 -84.2086 91° East 464 534 31,000  Level Cleveland Center
Mon 10:37:25 PM 41.7722 -84.0414 91° East 464 534 31,000  Level Cleveland Center
Mon 10:38:25 PM 41.7711 -83.8658 90° East 464 534 31,000  Level Cleveland Center
Mon 10:39:25 PM 41.7697 -83.6986 91° East 464 534 31,000  Level Cleveland Center
Mon 10:40:25 PM 41.7594 -83.5283 95° East 464 534 31,000  Level Cleveland Center
Mon 10:41:25 PM 41.7469 -83.3581 96° East 464 534 31,000  Level Cleveland Center
Mon 10:42:25 PM 41.7342 -83.1933 96° East 464 534 31,000  Level Cleveland Center
Mon 10:43:25 PM 41.7194 -83.0200 96° East 464 534 31,000  Level Cleveland Center
Mon 10:44:25 PM 41.7061 -82.8528 96° East 464 534 31,000  Level Cleveland Center
Mon 10:45:25 PM 41.6925 -82.6881 96° East 464 534 31,000  Level Cleveland Center
Mon 10:46:25 PM 41.6767 -82.5236 97° East 459 528 31,000  Level Cleveland Center
Mon 10:47:25 PM 41.6628 -82.3592 96° East 454 522 31,000  Level Cleveland Center
Mon 10:48:25 PM 41.6506 -82.1950 96° East 449 517 31,000  Level Cleveland Center
Mon 10:49:25 PM 41.6361 -82.0278 97° East 449 517 31,000  Level Cleveland Center
Mon 10:50:25 PM 41.6192 -81.8608 98° East 449 517 31,000  Level Cleveland Center
Mon 10:51:25 PM 41.6064 -81.6967 96° East 449 517 31,000  Level Cleveland Center
Mon 10:52:25 PM 41.5911 -81.5464 98° East 449 517 31,000  Level Cleveland Center
Mon 10:53:25 PM 41.5758 -81.3797 97° East 449 517 31,000  Level Cleveland Center
Mon 10:54:25 PM 41.5600 -81.2158 97° East 449 517 31,000  Level Cleveland Center
Mon 10:55:25 PM 41.5422 -81.0492 98° East 449 517 31,000  Level Cleveland Center
Mon 10:56:25 PM 41.5239 -80.8689 98° East 449 517 31,000  Level Cleveland Center
Mon 10:57:25 PM 41.5097 -80.7050 97° East 449 517 31,000  Level Cleveland Center
Mon 10:58:25 PM 41.4908 -80.5361 98° East 449 517 31,000  Level Cleveland Center
Mon 10:59:25 PM 41.4742 -80.3697 98° East 449 517 31,000  Level Cleveland Center
Mon 11:00:25 PM 41.4592 -80.2175 97° East 449 517 31,000  Level Cleveland Center
Mon 11:01:25 PM 41.4417 -80.0542 98° East 449 517 31,000  Level Cleveland Center
Mon 11:02:25 PM 41.4222 -79.8881 99° East 449 517 31,000  Level Cleveland Center
Mon 11:03:25 PM 41.4044 -79.7194 98° East 449 517 31,000  Level Cleveland Center
Mon 11:04:25 PM 41.3883 -79.5536 97° East 449 517 31,000  Level Cleveland Center
Mon 11:05:25 PM 41.3681 -79.3850 99° East 454 522 31,000 -450 Level Cleveland Center
Mon 11:06:25 PM 41.3475 -79.2222 99° East 454 522 30,100 -950 Descending Cleveland Center
Mon 11:07:25 PM 41.3286 -79.0542 98° East 454 522 29,100 -1,050 Descending Cleveland Center
Mon 11:08:25 PM 41.3075 -78.8858 99° East 454 522 28,000 -1,050 Descending Cleveland Center
Mon 11:09:25 PM 41.2881 -78.7150 99° East 459 528 27,000 -1,000 Descending Cleveland Center
Mon 11:10:25 PM 41.2664 -78.5472 100° East 464 534 26,000 -811 Descending Cleveland Center
Mon 11:11:53 PM 41.2367 -78.3036 99° East 481 554 25,000 -408 Descending New York Center
Mon 11:12:52 PM 41.2136 -78.1383 100° East 461 531 25,000  Level New York Center
Mon 11:13:54 PM 41.1925 -77.9706 99° East 456 525 25,000  Level New York Center
Mon 11:14:53 PM 41.1733 -77.8058 99° East 456 525 25,000 -305 Level New York Center
Mon 11:15:52 PM 41.1411 -77.6428 105° East 456 525 24,400 -807 Descending New York Center
Mon 11:16:52 PM 41.1086 -77.4822 105° East 456 525 23,400 -908 Descending New York Center
Mon 11:17:51 PM 41.0703 -77.3133 107° East 451 519 22,600 -843 Descending New York Center
Mon 11:18:53 PM 41.0372 -77.1561 106° East 446 513 21,700 -942 Descending New York Center
Mon 11:19:52 PM 41.0017 -77.0014 107° East 446 513 20,700 -958 Descending New York Center
Mon 11:20:52 PM 40.9681 -76.8472 106° East 446 513 19,800 -1,059 Descending New York Center
Mon 11:21:51 PM 40.9358 -76.6986 106° East 436 502 18,600 -1,311 Descending New York Center
Mon 11:22:51 PM 40.9036 -76.5503 106° East 427 491 17,200 -1,623 Descending New York Center
Mon 11:23:53 PM 40.8783 -76.4275 105° East 407 468 15,300 -1,967 Descending New York Center
Mon 11:24:53 PM 40.8472 -76.2906 107° East 402 463 13,200 -2,168 Descending New York Center
Mon 11:25:52 PM 40.8178 -76.1592 106° East 357 411 11,000 -1,650 Descending New York Center
Mon 11:26:53 PM 40.7936 -76.0531 107° East 309 356 9,900 -942 Descending New York Center
Mon 11:27:53 PM 40.7725 -75.9611 107° East 292 336 9,100 -458 Descending New York Center
Mon 11:28:51 PM 40.7497 -75.8606 107° East 286 329 9,000 -203 Descending New York Center
Mon 11:29:51 PM 40.7256 -75.7492 106° East 286 329 8,700 -950 Descending New York Center
Mon 11:30:51 PM 40.7022 -75.6572 108° East 286 329 7,100 -1,623 Descending New York Center
Mon 11:31:53 PM 40.6831 -75.5656 105° East 275 316 5,400 -1,574 Descending New York Center
Mon 11:32:53 PM 40.6544 -75.4978 119° Southeast 233 268 3,900 -1,220 Descending New York Center
Mon 11:33:51 PM 40.5986 -75.4858 171° South 191 220 3,000 -458 Descending New York Center
Mon 11:34:51 PM 40.5444 -75.4875 181° South 191 220 3,000 -49 Level New York Center
Mon 11:35:53 PM 40.5586 -75.5486 287° West 118 136 2,900 -500 Descending New York Center
Mon 11:36:51 PM 40.5969 -75.5322 18° North 111 128 2,000 -750 Descending New York Center
Mon 11:37:53 PM 40.6192 -75.4956 51° Northeast 111 128 1,400 -581 Descending New York Center

Login

Don't have an account? Register now (free) for customized features, flight alerts, and more!